Time;durP1;ratioP1;P1;durP2;ratioP2;P2;SDS_P1;SDS_P2;PMS_P1;PMS_P2;Temp;Humidity;BMP_temperature;BMP_pressure;BME280_temperature;BME280_humidity;BME280_pressure;Samples;Min_cycle;Max_cycle;Signal;HPM_P1;HPM_P2
2022/07/07 00:00:07;;;;;;;7.00;3.58;;;16.50;99.90;;;;;;5067927;28;20053;-65
2022/07/07 00:02:32;;;;;;;6.72;3.30;;;16.50;99.90;;;;;;5068201;28;20538;-65
2022/07/07 00:04:58;;;;;;;8.63;3.72;;;16.50;99.90;;;;;;5068037;28;20155;-65
2022/07/07 00:07:24;;;;;;;3.58;3.28;;;16.50;99.90;;;;;;5068281;28;20051;-65
2022/07/07 00:09:49;;;;;;;5.38;3.38;;;16.40;99.90;;;;;;5067363;28;20052;-65
2022/07/07 00:12:15;;;;;;;8.02;4.10;;;16.40;99.90;;;;;;5068423;28;20048;-65
2022/07/07 00:14:42;;;;;;;10.25;3.33;;;16.40;99.90;;;;;;5067433;28;20063;-65
2022/07/07 00:17:08;;;;;;;7.97;3.38;;;16.40;99.90;;;;;;5067104;28;20499;-65
2022/07/07 00:19:33;;;;;;;6.05;3.17;;;16.50;99.90;;;;;;5068221;28;20133;-64
2022/07/07 00:21:59;;;;;;;9.48;3.72;;;16.40;99.90;;;;;;5067927;28;20043;-65
2022/07/07 00:24:24;;;;;;;7.68;2.92;;;16.50;99.90;;;;;;5067186;28;20456;-65
2022/07/07 00:26:50;;;;;;;6.22;3.30;;;16.40;99.90;;;;;;5067471;28;20432;-65
2022/07/07 00:29:16;;;;;;;6.80;3.03;;;16.40;99.90;;;;;;5068433;28;20040;-65
2022/07/07 00:31:42;;;;;;;8.50;3.35;;;16.40;99.90;;;;;;5067608;28;20479;-65
2022/07/07 00:34:07;;;;;;;3.83;2.45;;;16.40;99.90;;;;;;5067344;28;20048;-65
2022/07/07 00:36:34;;;;;;;3.13;1.80;;;16.30;99.90;;;;;;5067038;28;20048;-65
2022/07/07 00:39:00;;;;;;;8.27;2.03;;;16.30;99.90;;;;;;5066555;28;20098;-65
2022/07/07 00:41:26;;;;;;;3.88;1.92;;;16.30;99.90;;;;;;5068181;28;20037;-65
2022/07/07 00:43:51;;;;;;;3.15;1.73;;;16.30;99.90;;;;;;5067238;28;20408;-64
2022/07/07 00:46:17;;;;;;;2.95;1.50;;;16.20;99.90;;;;;;5066640;28;20094;-64
2022/07/07 00:48:43;;;;;;;4.68;2.05;;;16.20;99.90;;;;;;5068014;28;20078;-65
2022/07/07 00:51:10;;;;;;;6.43;1.75;;;16.10;99.90;;;;;;5067201;28;20036;-65
2022/07/07 00:53:37;;;;;;;3.22;2.00;;;16.10;99.90;;;;;;5066781;28;20327;-65
2022/07/07 00:56:03;;;;;;;4.97;1.90;;;16.10;99.90;;;;;;5065688;28;20048;-65
2022/07/07 00:58:29;;;;;;;6.50;2.40;;;16.10;99.90;;;;;;5067168;28;20114;-65
2022/07/07 01:00:55;;;;;;;5.22;2.08;;;16.00;99.90;;;;;;5065880;28;20531;-65
2022/07/07 01:03:20;;;;;;;5.00;2.17;;;16.10;99.90;;;;;;5067021;28;20415;-65
2022/07/07 01:05:47;;;;;;;4.88;2.47;;;16.00;99.90;;;;;;5066928;28;20040;-65
2022/07/07 01:08:17;;;;;;;7.47;2.20;;;16.00;99.90;;;;;;5067583;28;20053;-65
2022/07/07 01:10:44;;;;;;;4.38;2.45;;;16.00;99.90;;;;;;5067551;28;20043;-65
2022/07/07 01:13:09;;;;;;;3.72;2.20;;;15.90;99.90;;;;;;5065766;28;20040;-64
2022/07/07 01:15:35;;;;;;;6.75;2.92;;;16.00;99.90;;;;;;5067360;28;20086;-64
2022/07/07 01:18:01;;;;;;;6.68;2.25;;;16.00;99.90;;;;;;5066463;28;20048;-65
2022/07/07 01:20:27;;;;;;;4.93;2.28;;;16.00;99.90;;;;;;5066229;28;20039;-65
2022/07/07 01:22:54;;;;;;;5.40;2.45;;;15.90;99.90;;;;;;5065435;28;20072;-65
2022/07/07 01:25:21;;;;;;;8.52;2.42;;;15.90;99.90;;;;;;5066816;28;20036;-65
2022/07/07 01:27:47;;;;;;;6.07;3.08;;;15.90;99.90;;;;;;5066236;28;20045;-65
2022/07/07 01:30:13;;;;;;;6.60;2.33;;;16.00;99.90;;;;;;5067351;28;20094;-65
2022/07/07 01:32:39;;;;;;;8.20;2.50;;;16.00;99.90;;;;;;5066289;28;20546;-65
2022/07/07 01:35:06;;;;;;;7.70;2.90;;;16.00;99.90;;;;;;5064518;28;20088;-65
2022/07/07 01:37:33;;;;;;;11.10;2.85;;;16.00;99.90;;;;;;5066594;28;20040;-65
2022/07/07 01:39:59;;;;;;;11.73;2.88;;;16.00;99.90;;;;;;5066049;28;20050;-65
2022/07/07 01:42:25;;;;;;;7.35;3.03;;;16.00;99.90;;;;;;5064592;28;20048;-65
2022/07/07 01:44:51;;;;;;;7.35;2.60;;;15.90;99.90;;;;;;5066218;28;20102;-65
2022/07/07 01:47:18;;;;;;;7.72;2.92;;;16.00;99.90;;;;;;5064944;28;20456;-65
2022/07/07 01:49:44;;;;;;;7.15;2.75;;;16.00;99.90;;;;;;5065552;28;20041;-65
2022/07/07 01:52:10;;;;;;;7.07;2.90;;;16.00;99.90;;;;;;5066274;28;20604;-65
2022/07/07 01:54:38;;;;;;;12.18;3.83;;;15.90;99.90;;;;;;5067434;28;20849;-65
2022/07/07 01:57:04;;;;;;;11.35;3.40;;;15.90;99.90;;;;;;5066029;28;20538;-65
2022/07/07 01:59:30;;;;;;;12.68;3.22;;;16.00;99.90;;;;;;5065911;28;20064;-66
2022/07/07 02:01:56;;;;;;;21.20;3.03;;;16.00;99.90;;;;;;5065715;28;20064;-65
2022/07/07 02:04:22;;;;;;;13.27;3.40;;;16.00;99.90;;;;;;5066268;28;20090;-65
2022/07/07 02:06:47;;;;;;;10.43;3.03;;;16.00;99.90;;;;;;5065743;28;20082;-65
2022/07/07 02:09:13;;;;;;;12.82;3.33;;;16.00;99.90;;;;;;5065884;28;20103;-65
2022/07/07 02:11:39;;;;;;;11.35;3.00;;;16.00;99.90;;;;;;5066006;28;20044;-66
2022/07/07 02:14:06;;;;;;;8.10;2.88;;;16.00;99.90;;;;;;5065824;28;20384;-66
2022/07/07 02:16:33;;;;;;;7.63;1.98;;;16.00;99.90;;;;;;5065254;28;20052;-65
2022/07/07 02:19:01;;;;;;;13.15;3.15;;;16.00;99.90;;;;;;5065952;28;20045;-66
2022/07/07 02:21:26;;;;;;;8.18;2.10;;;16.00;99.90;;;;;;5065659;28;20503;-66
2022/07/07 02:23:54;;;;;;;8.63;2.45;;;16.00;99.90;;;;;;5064942;28;20051;-65
2022/07/07 02:26:20;;;;;;;7.35;2.15;;;16.00;99.90;;;;;;5066008;28;20040;-66
2022/07/07 02:28:46;;;;;;;12.57;2.30;;;16.00;99.90;;;;;;5066154;28;20487;-66
2022/07/07 02:31:12;;;;;;;6.85;2.30;;;16.00;99.90;;;;;;5065390;28;20241;-66
2022/07/07 02:33:38;;;;;;;6.43;2.05;;;16.00;99.90;;;;;;5065963;28;20110;-66
2022/07/07 02:36:05;;;;;;;9.75;1.67;;;16.00;99.90;;;;;;5065481;28;20109;-65
2022/07/07 02:38:31;;;;;;;7.78;2.75;;;15.90;99.90;;;;;;5065634;28;20052;-66
2022/07/07 02:40:57;;;;;;;8.93;2.45;;;16.00;99.90;;;;;;5065240;28;20047;-66
2022/07/07 02:43:23;;;;;;;6.60;1.90;;;16.00;99.90;;;;;;5065800;28;20052;-66
2022/07/07 02:45:50;;;;;;;8.90;2.08;;;15.90;99.90;;;;;;5064801;28;20120;-65
2022/07/07 02:48:18;;;;;;;6.72;2.17;;;15.90;99.90;;;;;;5066218;28;20055;-66
2022/07/07 02:50:44;;;;;;;7.55;1.92;;;16.00;99.90;;;;;;5065319;28;20052;-65
2022/07/07 02:53:11;;;;;;;4.15;2.03;;;15.90;99.90;;;;;;5064410;28;20224;-65
2022/07/07 02:55:37;;;;;;;6.22;2.20;;;16.00;99.90;;;;;;5064625;28;20273;-66
2022/07/07 02:58:04;;;;;;;12.07;2.50;;;16.00;99.90;;;;;;5065172;28;20575;-66
2022/07/07 03:00:33;;;;;;;11.68;2.85;;;15.90;99.90;;;;;;5066695;28;20110;-66
2022/07/07 03:03:00;;;;;;;6.20;1.80;;;15.90;99.90;;;;;;5069247;28;20044;-65
2022/07/07 03:05:25;;;;;;;11.10;2.88;;;15.90;99.90;;;;;;5068718;28;20048;-65
2022/07/07 03:07:51;;;;;;;8.75;2.75;;;15.90;99.90;;;;;;5068802;28;20048;-65
2022/07/07 03:10:17;;;;;;;11.35;2.90;;;15.90;99.90;;;;;;5069580;28;20045;-65
2022/07/07 03:12:42;;;;;;;12.18;2.75;;;15.90;99.90;;;;;;5069331;28;20048;-66
2022/07/07 03:15:08;;;;;;;7.93;2.00;;;15.90;99.90;;;;;;5067643;28;20044;-65
2022/07/07 03:17:41;;;;;;;10.73;2.40;;;15.90;99.90;;;;;;5067821;28;20053;-66
2022/07/07 03:20:07;;;;;;;12.10;1.77;;;15.80;99.90;;;;;;5067979;28;20071;-66
2022/07/07 03:22:33;;;;;;;7.65;1.60;;;15.90;99.90;;;;;;5069051;28;20044;-66
2022/07/07 03:24:58;;;;;;;8.23;1.45;;;15.80;99.90;;;;;;5068543;28;20624;-66
2022/07/07 03:27:24;;;;;;;7.20;1.35;;;15.80;99.90;;;;;;5066973;28;20157;-65
2022/07/07 03:29:51;;;;;;;5.20;1.58;;;15.70;99.90;;;;;;5068810;28;20173;-66
2022/07/07 03:32:16;;;;;;;11.05;1.75;;;15.70;99.90;;;;;;5068859;28;20106;-66
2022/07/07 03:34:42;;;;;;;8.02;1.48;;;15.70;99.90;;;;;;5067298;28;20052;-66
2022/07/07 03:37:07;;;;;;;4.95;1.52;;;15.70;99.90;;;;;;5067189;28;20041;-65
2022/07/07 03:39:33;;;;;;;6.07;1.15;;;15.60;99.90;;;;;;5069045;28;20071;-66
2022/07/07 03:41:59;;;;;;;4.75;1.20;;;15.60;99.90;;;;;;5067868;28;20055;-65
2022/07/07 03:44:25;;;;;;;7.05;0.80;;;15.60;99.90;;;;;;5068925;28;20093;-65
2022/07/07 03:46:51;;;;;;;9.52;1.60;;;15.60;99.90;;;;;;5068481;28;20044;-66
2022/07/07 03:49:16;;;;;;;12.02;1.75;;;15.60;99.90;;;;;;5068031;28;20487;-66
2022/07/07 03:51:42;;;;;;;7.53;1.10;;;15.60;99.90;;;;;;5068985;28;20036;-66
2022/07/07 03:54:09;;;;;;;6.97;1.58;;;15.50;99.90;;;;;;5068083;28;20036;-65
2022/07/07 03:56:35;;;;;;;6.85;1.80;;;15.50;99.90;;;;;;5067989;28;20055;-65
2022/07/07 03:59:01;;;;;;;6.90;1.48;;;15.50;99.90;;;;;;5067940;28;20064;-65
2022/07/07 04:01:26;;;;;;;11.23;1.55;;;15.50;99.90;;;;;;5068370;28;20363;-66
2022/07/07 04:03:52;;;;;;;11.40;1.77;;;15.40;99.90;;;;;;5067089;28;20131;-65
2022/07/07 04:06:18;;;;;;;9.13;1.70;;;15.40;99.90;;;;;;5067999;28;20040;-65
2022/07/07 04:08:43;;;;;;;5.50;1.40;;;15.30;99.90;;;;;;5068035;28;20487;-66
2022/07/07 04:11:09;;;;;;;6.45;1.70;;;15.30;99.90;;;;;;5067160;28;20048;-65
2022/07/07 04:13:35;;;;;;;10.48;2.35;;;15.30;99.90;;;;;;5068112;28;20464;-65
2022/07/07 04:16:00;;;;;;;13.13;2.42;;;15.30;99.90;;;;;;5067092;28;20527;-65
2022/07/07 04:18:26;;;;;;;4.55;1.52;;;15.30;99.90;;;;;;5067960;28;20423;-66
2022/07/07 04:20:52;;;;;;;6.30;1.77;;;15.30;99.90;;;;;;5067628;28;20079;-65
2022/07/07 04:23:17;;;;;;;8.75;2.00;;;15.30;99.90;;;;;;5067366;28;20033;-66
2022/07/07 04:25:43;;;;;;;6.15;1.75;;;15.30;99.90;;;;;;5068367;28;20052;-66
2022/07/07 04:28:08;;;;;;;8.02;1.52;;;15.30;99.90;;;;;;5067763;28;20047;-65
2022/07/07 04:30:34;;;;;;;12.43;1.90;;;15.30;99.90;;;;;;5067146;28;20060;-66
2022/07/07 04:33:00;;;;;;;6.50;1.52;;;15.30;99.90;;;;;;5067360;28;20044;-65
2022/07/07 04:35:25;;;;;;;10.93;1.73;;;15.30;99.90;;;;;;5067433;28;20518;-66
2022/07/07 04:37:51;;;;;;;6.55;1.38;;;15.30;99.90;;;;;;5066765;28;20063;-65
2022/07/07 04:40:17;;;;;;;9.13;1.40;;;15.30;99.90;;;;;;5068056;28;20047;-65
2022/07/07 04:42:42;;;;;;;5.32;1.42;;;15.50;99.90;;;;;;5068220;28;20040;-65
2022/07/07 04:45:09;;;;;;;7.45;1.27;;;15.30;99.90;;;;;;5066201;28;20449;-65
2022/07/07 04:47:40;;;;;;;8.55;1.35;;;15.30;99.90;;;;;;5067381;28;20040;-66
2022/07/07 04:50:07;;;;;;;11.18;2.25;;;15.30;99.90;;;;;;5066902;28;20849;-65
2022/07/07 04:52:32;;;;;;;5.78;1.02;;;15.30;99.90;;;;;;5066801;28;20051;-66
2022/07/07 04:54:58;;;;;;;4.57;1.60;;;15.30;99.90;;;;;;5066932;28;20492;-66
2022/07/07 04:57:24;;;;;;;6.75;1.45;;;15.20;99.90;;;;;;5067239;28;20124;-66
2022/07/07 04:59:49;;;;;;;5.40;1.50;;;15.20;99.90;;;;;;5066035;28;20049;-65
2022/07/07 05:02:15;;;;;;;6.78;1.30;;;15.30;99.90;;;;;;5067713;28;20041;-65
2022/07/07 05:04:40;;;;;;;16.92;3.22;;;15.20;99.90;;;;;;5065573;28;20495;-66
2022/07/07 05:07:06;;;;;;;6.57;1.13;;;15.20;99.90;;;;;;5066208;28;20761;-65
2022/07/07 05:09:31;;;;;;;5.15;1.77;;;15.20;99.90;;;;;;5066971;28;20044;-66
2022/07/07 05:11:57;;;;;;;15.85;2.20;;;15.20;99.90;;;;;;5065938;28;20055;-66
2022/07/07 05:14:22;;;;;;;10.25;1.60;;;15.20;99.90;;;;;;5066855;28;20521;-66
2022/07/07 05:16:48;;;;;;;6.32;1.50;;;15.20;99.90;;;;;;5066602;28;20458;-66
2022/07/07 05:19:13;;;;;;;7.43;2.05;;;15.20;99.90;;;;;;5066318;28;20056;-66
2022/07/07 05:21:39;;;;;;;11.05;2.30;;;15.20;99.90;;;;;;5065976;28;20044;-66
2022/07/07 05:24:05;;;;;;;11.30;2.35;;;15.20;99.90;;;;;;5064687;28;20232;-66
2022/07/07 05:26:30;;;;;;;6.82;1.85;;;15.20;99.90;;;;;;5065381;28;20129;-65
2022/07/07 05:28:56;;;;;;;7.15;2.20;;;15.20;99.90;;;;;;5066135;28;20110;-65
2022/07/07 05:31:21;;;;;;;10.07;2.80;;;15.30;99.90;;;;;;5066547;28;20098;-65
2022/07/07 05:33:48;;;;;;;12.00;2.08;;;15.20;99.90;;;;;;5065439;28;20071;-65
2022/07/07 05:36:14;;;;;;;5.75;1.95;;;15.30;99.90;;;;;;5067139;28;20487;-65
2022/07/07 05:38:39;;;;;;;15.73;2.78;;;15.20;99.90;;;;;;5066751;28;20380;-66
2022/07/07 05:41:05;;;;;;;8.90;2.42;;;15.20;99.90;;;;;;5063800;28;20350;-65
2022/07/07 05:43:31;;;;;;;4.95;1.58;;;15.30;99.90;;;;;;5066531;28;20045;-65
2022/07/07 05:45:57;;;;;;;9.85;2.38;;;15.30;99.90;;;;;;5066020;28;20041;-65
2022/07/07 05:48:22;;;;;;;5.20;1.75;;;15.40;99.90;;;;;;5064366;28;20052;-65
2022/07/07 05:50:48;;;;;;;4.20;1.48;;;15.50;99.90;;;;;;5066245;28;20098;-65
2022/07/07 05:53:13;;;;;;;8.63;2.22;;;15.50;99.90;;;;;;5066738;28;20480;-65
2022/07/07 05:55:39;;;;;;;6.95;1.38;;;15.60;99.90;;;;;;5065519;28;20048;-65
2022/07/07 05:58:05;;;;;;;8.73;1.95;;;15.60;99.90;;;;;;5065782;28;20083;-65
2022/07/07 06:00:30;;;;;;;7.75;1.85;;;15.70;99.90;;;;;;5066052;28;20052;-65
2022/07/07 06:02:56;;;;;;;8.18;2.35;;;16.00;99.90;;;;;;5064868;28;20044;-65
2022/07/07 06:05:22;;;;;;;4.53;1.35;;;15.90;99.90;;;;;;5066217;28;20089;-66
2022/07/07 06:07:48;;;;;;;9.00;1.63;;;16.00;99.90;;;;;;5066120;28;20094;-66
2022/07/07 06:10:14;;;;;;;9.50;1.98;;;16.00;99.90;;;;;;5065745;28;20044;-65
2022/07/07 06:12:43;;;;;;;4.72;1.55;;;16.00;99.90;;;;;;5066043;28;20376;-65
2022/07/07 06:15:09;;;;;;;5.70;1.02;;;16.00;99.90;;;;;;5065086;28;20051;-65
2022/07/07 06:17:35;;;;;;;3.67;1.77;;;16.00;99.90;;;;;;5065839;28;20037;-65
2022/07/07 06:20:01;;;;;;;3.67;1.33;;;16.00;99.90;;;;;;5065789;28;20098;-66
2022/07/07 06:22:28;;;;;;;5.90;1.63;;;16.10;99.90;;;;;;5064194;28;20041;-65
2022/07/07 06:24:54;;;;;;;3.25;1.20;;;16.10;99.90;;;;;;5065509;28;20040;-65
2022/07/07 06:27:20;;;;;;;5.25;1.40;;;16.10;99.90;;;;;;5065741;28;20051;-66
2022/07/07 06:29:47;;;;;;;4.22;0.73;;;16.10;99.90;;;;;;5065520;28;20048;-66
2022/07/07 06:32:15;;;;;;;2.33;0.70;;;16.20;99.90;;;;;;5066496;28;20091;-65
2022/07/07 06:34:42;;;;;;;3.45;1.23;;;16.20;99.90;;;;;;5066919;28;20039;-66
2022/07/07 06:37:09;;;;;;;3.35;0.93;;;16.30;99.90;;;;;;5069026;28;20092;-65
2022/07/07 06:39:34;;;;;;;7.40;1.08;;;16.30;99.90;;;;;;5069880;28;20044;-66
2022/07/07 06:42:00;;;;;;;3.47;1.30;;;16.20;99.90;;;;;;5069416;28;20043;-66
2022/07/07 06:44:31;;;;;;;1.88;0.50;;;16.20;99.90;;;;;;5069208;28;20111;-65
2022/07/07 06:47:00;;;;;;;2.58;0.30;;;16.10;99.90;;;;;;5069594;28;20120;-65
2022/07/07 06:49:26;;;;;;;2.72;0.70;;;16.00;99.90;;;;;;5069881;28;20147;-65
2022/07/07 06:51:52;;;;;;;2.50;0.52;;;15.90;99.90;;;;;;5068917;28;20403;-65
2022/07/07 06:54:18;;;;;;;3.42;1.00;;;15.90;99.90;;;;;;5069373;28;20045;-65
2022/07/07 06:56:44;;;;;;;3.45;0.63;;;16.00;99.90;;;;;;5070348;28;20044;-65
2022/07/07 06:59:10;;;;;;;3.50;0.70;;;16.20;99.90;;;;;;5068103;28;20057;-65
2022/07/07 07:01:35;;;;;;;2.60;1.00;;;16.30;99.90;;;;;;5069737;28;20567;-65
2022/07/07 07:04:01;;;;;;;4.18;0.88;;;16.30;99.90;;;;;;5067622;28;20127;-65
2022/07/07 07:06:28;;;;;;;6.28;1.33;;;16.30;99.90;;;;;;5067569;28;20707;-65
2022/07/07 07:08:54;;;;;;;2.58;0.88;;;16.30;99.90;;;;;;5068926;28;20088;-65
2022/07/07 07:11:20;;;;;;;2.20;0.60;;;16.30;99.90;;;;;;5069355;28;20041;-65
2022/07/07 07:13:49;;;;;;;2.65;0.60;;;16.30;99.90;;;;;;5068638;28;20052;-65
2022/07/07 07:16:16;;;;;;;2.05;0.85;;;16.40;99.90;;;;;;5069927;28;20059;-65
2022/07/07 07:18:43;;;;;;;3.45;0.73;;;16.40;99.90;;;;;;5069330;28;20384;-65
2022/07/07 07:21:08;;;;;;;3.90;0.82;;;16.40;99.90;;;;;;5069071;28;20048;-65
2022/07/07 07:23:34;;;;;;;5.22;1.08;;;16.40;99.90;;;;;;5069933;28;20044;-65
2022/07/07 07:25:59;;;;;;;4.40;1.10;;;16.40;99.90;;;;;;5069031;28;20411;-65
2022/07/07 07:28:25;;;;;;;5.55;1.30;;;16.40;99.90;;;;;;5070607;28;20048;-65
2022/07/07 07:30:50;;;;;;;3.72;0.80;;;16.30;99.90;;;;;;5069108;28;20091;-66
2022/07/07 07:33:17;;;;;;;2.65;1.00;;;16.40;99.90;;;;;;5069343;28;20376;-65
2022/07/07 07:35:42;;;;;;;4.28;1.05;;;16.40;99.90;;;;;;5071796;28;20040;-66
2022/07/07 07:38:08;;;;;;;6.88;0.73;;;16.30;99.90;;;;;;5070784;28;20052;-65
2022/07/07 07:40:34;;;;;;;2.38;0.55;;;16.30;99.90;;;;;;5070595;28;20502;-65
2022/07/07 07:43:00;;;;;;;3.33;0.85;;;16.40;99.90;;;;;;5071070;28;20048;-65
2022/07/07 07:45:25;;;;;;;3.92;0.93;;;16.50;99.90;;;;;;5070938;28;20051;-66
2022/07/07 07:47:51;;;;;;;6.53;1.25;;;16.60;99.90;;;;;;5069074;28;20495;-65
2022/07/07 07:50:19;;;;;;;3.85;0.95;;;16.60;99.90;;;;;;5071370;28;20485;-65
2022/07/07 07:52:48;;;;;;;6.63;1.15;;;16.70;99.90;;;;;;5071392;28;20052;-65
2022/07/07 07:55:16;;;;;;;6.60;1.48;;;16.80;99.90;;;;;;5069413;28;20285;-65
2022/07/07 07:57:43;;;;;;;4.93;1.02;;;16.90;99.90;;;;;;5069977;28;20044;-65
2022/07/07 08:00:11;;;;;;;4.75;1.35;;;17.10;99.90;;;;;;5070379;28;20061;-65
2022/07/07 08:02:37;;;;;;;5.57;1.25;;;17.20;99.90;;;;;;5070527;28;20292;-66
2022/07/07 08:05:03;;;;;;;2.20;0.80;;;17.20;99.90;;;;;;5069238;28;20052;-66
2022/07/07 08:07:28;;;;;;;6.05;1.55;;;17.20;99.90;;;;;;5070521;28;20415;-65
2022/07/07 08:09:54;;;;;;;10.75;1.25;;;17.10;99.90;;;;;;5069607;28;20059;-66
2022/07/07 08:12:20;;;;;;;9.82;1.95;;;17.30;99.90;;;;;;5070911;28;20295;-65
2022/07/07 08:14:45;;;;;;;6.07;1.52;;;17.10;99.90;;;;;;5070207;28;20047;-65
2022/07/07 08:17:11;;;;;;;7.05;1.77;;;17.00;99.90;;;;;;5070377;28;20048;-66
2022/07/07 08:19:37;;;;;;;6.25;1.70;;;17.10;99.90;;;;;;5069435;28;20078;-66
2022/07/07 08:22:03;;;;;;;8.07;2.00;;;17.10;99.90;;;;;;5069502;28;20048;-65
2022/07/07 08:24:29;;;;;;;6.38;1.63;;;17.00;99.90;;;;;;5070285;28;20050;-65
2022/07/07 08:26:54;;;;;;;6.40;1.85;;;17.00;99.90;;;;;;5070056;28;20053;-65
2022/07/07 08:29:20;;;;;;;6.50;1.77;;;17.00;99.90;;;;;;5069691;28;20399;-65
2022/07/07 08:31:46;;;;;;;6.10;1.13;;;17.10;99.90;;;;;;5070827;28;20044;-66
2022/07/07 08:34:12;;;;;;;4.40;1.38;;;17.10;99.90;;;;;;5070653;28;20518;-66
2022/07/07 08:36:37;;;;;;;4.82;2.08;;;17.20;99.90;;;;;;5069574;28;20049;-65
2022/07/07 08:39:03;;;;;;;3.38;1.40;;;17.20;99.90;;;;;;5069555;28;20045;-66
2022/07/07 08:41:29;;;;;;;7.47;2.10;;;17.20;99.90;;;;;;5070114;28;20562;-63
2022/07/07 08:43:55;;;;;;;4.40;1.17;;;17.30;99.90;;;;;;5069147;28;20343;-62
2022/07/07 08:46:22;;;;;;;4.90;1.55;;;17.30;99.90;;;;;;5070023;28;20037;-63
2022/07/07 08:48:47;;;;;;;4.95;1.42;;;17.40;99.90;;;;;;5069849;28;20044;-63
2022/07/07 08:51:15;;;;;;;7.25;1.83;;;17.40;99.90;;;;;;5069618;28;20044;-63
2022/07/07 08:53:43;;;;;;;4.60;1.60;;;17.50;99.90;;;;;;5068139;28;20127;-63
2022/07/07 08:56:09;;;;;;;5.20;1.23;;;17.40;99.90;;;;;;5069338;28;20048;-63
2022/07/07 08:58:36;;;;;;;3.90;1.00;;;17.30;99.90;;;;;;5068620;28;20052;-63
2022/07/07 09:01:06;;;;;;;4.05;1.10;;;17.30;99.90;;;;;;5069356;28;20511;-63
2022/07/07 09:03:32;;;;;;;4.85;0.88;;;17.30;99.90;;;;;;5070074;28;20041;-63
2022/07/07 09:05:58;;;;;;;3.20;1.00;;;17.30;99.90;;;;;;5068185;28;20032;-63
2022/07/07 09:08:25;;;;;;;4.47;0.82;;;17.30;99.90;;;;;;5069282;28;20075;-63
2022/07/07 09:10:52;;;;;;;4.82;0.70;;;17.50;99.90;;;;;;5067410;28;20431;-63
2022/07/07 09:13:32;;;;;;;3.03;0.80;;;17.60;99.90;;;;;;5068178;28;20407;-63
2022/07/07 09:16:04;;;;;;;4.00;0.90;;;17.60;99.90;;;;;;5067860;28;20553;-63
2022/07/07 09:18:35;;;;;;;2.80;1.10;;;17.60;99.90;;;;;;5067508;28;20470;-62
2022/07/07 09:21:03;;;;;;;4.05;0.85;;;17.50;99.90;;;;;;5068594;28;20406;-63
2022/07/07 09:23:32;;;;;;;3.45;1.25;;;17.60;99.90;;;;;;5069314;28;20045;-63
2022/07/07 09:25:58;;;;;;;6.35;1.45;;;17.60;99.90;;;;;;5066181;28;20068;-63
2022/07/07 09:28:26;;;;;;;4.05;1.10;;;17.60;99.90;;;;;;5066869;28;20437;-63
2022/07/07 09:30:53;;;;;;;4.22;0.98;;;17.50;99.90;;;;;;5067314;28;20056;-63
2022/07/07 09:33:21;;;;;;;5.93;1.10;;;17.40;99.90;;;;;;5066847;28;20060;-63
2022/07/07 09:38:34;;;;;;;6.95;1.40;;;17.40;99.90;;;;;;5067547;28;20084;-63
2022/07/07 09:41:13;;;;;;;5.85;1.48;;;17.50;99.90;;;;;;5066503;28;20045;-63
2022/07/07 09:43:53;;;;;;;3.78;1.08;;;17.60;99.90;;;;;;5066061;28;20056;-63
2022/07/07 09:46:27;;;;;;;6.90;1.95;;;17.50;99.90;;;;;;5065272;28;20044;-63
2022/07/07 09:49:00;;;;;;;6.22;1.42;;;17.40;99.90;;;;;;5066860;28;20106;-63
2022/07/07 09:51:31;;;;;;;5.40;1.42;;;17.30;99.90;;;;;;5067337;28;20045;-63
2022/07/07 09:54:14;;;;;;;10.15;2.00;;;17.30;99.90;;;;;;5066043;28;20040;-63
2022/07/07 09:56:47;;;;;;;6.65;1.00;;;17.20;99.90;;;;;;5067240;28;20052;-62
2022/07/07 09:59:19;;;;;;;8.30;1.83;;;17.30;99.90;;;;;;5065896;28;20048;-63
2022/07/07 10:01:47;;;;;;;6.63;1.40;;;17.30;99.90;;;;;;5067051;28;20052;-63
2022/07/07 10:04:19;;;;;;;6.05;1.35;;;17.30;99.90;;;;;;5066936;28;20097;-63
2022/07/07 10:06:45;;;;;;;7.15;1.70;;;17.30;99.90;;;;;;5067459;28;20048;-62
2022/07/07 10:09:19;;;;;;;10.75;1.92;;;16.60;99.90;;;;;;5065907;28;20119;-63
2022/07/07 10:11:51;;;;;;;9.88;2.25;;;17.00;99.90;;;;;;5067179;28;20115;-62
2022/07/07 10:14:24;;;;;;;11.40;1.98;;;17.00;99.90;;;;;;5066705;28;20049;-63
2022/07/07 10:16:51;;;;;;;11.45;2.47;;;16.90;99.90;;;;;;5066162;28;20080;-63
2022/07/07 10:19:20;;;;;;;5.30;2.17;;;16.90;99.90;;;;;;5066316;28;20044;-63
2022/07/07 10:21:49;;;;;;;5.32;1.75;;;16.80;99.90;;;;;;5066197;28;20051;-63
2022/07/07 10:24:17;;;;;;;11.10;2.35;;;16.80;99.90;;;;;;5066769;28;20082;-63
2022/07/07 10:26:50;;;;;;;9.25;1.73;;;16.80;99.90;;;;;;5066620;28;20049;-63
2022/07/07 10:29:17;;;;;;;7.45;2.08;;;16.80;99.90;;;;;;5064766;28;20040;-63
2022/07/07 10:31:51;;;;;;;10.73;2.25;;;17.00;99.90;;;;;;5066578;28;20051;-63
2022/07/07 10:34:17;;;;;;;9.50;2.10;;;17.10;99.90;;;;;;5066403;28;20055;-63
2022/07/07 10:37:02;;;;;;;13.05;2.63;;;17.10;99.90;;;;;;5066353;28;20044;-63
2022/07/07 10:39:34;;;;;;;8.25;2.33;;;17.20;99.90;;;;;;5066097;28;20045;-63
2022/07/07 10:42:15;;;;;;;8.63;1.73;;;17.20;99.90;;;;;;5065654;28;20613;-63
2022/07/07 10:44:49;;;;;;;15.73;3.10;;;17.20;99.90;;;;;;5065611;28;20419;-63
2022/07/07 10:47:17;;;;;;;12.82;3.25;;;17.20;99.90;;;;;;5066623;28;20045;-63
2022/07/07 10:49:46;;;;;;;10.32;2.53;;;17.30;99.90;;;;;;5066101;28;20084;-63
2022/07/07 10:52:20;;;;;;;10.88;2.90;;;17.30;99.90;;;;;;5066154;28;20488;-63
2022/07/07 10:55:00;;;;;;;12.73;2.95;;;18.30;99.90;;;;;;5066755;28;20522;-63
2022/07/07 10:57:27;;;;;;;7.18;2.47;;;17.30;99.90;;;;;;5065536;28;20040;-63
2022/07/07 10:59:56;;;;;;;9.05;2.50;;;17.20;99.90;;;;;;5064057;28;20520;-63
2022/07/07 11:02:35;;;;;;;8.00;2.10;;;17.10;99.90;;;;;;5065840;28;20486;-63
2022/07/07 11:05:12;;;;;;;12.63;2.67;;;17.00;99.90;;;;;;5064214;28;20110;-63
2022/07/07 11:07:37;;;;;;;9.73;3.03;;;17.00;99.90;;;;;;5065637;28;20423;-63
2022/07/07 11:10:04;;;;;;;7.18;2.10;;;17.00;99.90;;;;;;5064099;28;20131;-63
2022/07/07 11:12:41;;;;;;;9.68;2.83;;;17.10;99.90;;;;;;5063784;28;20041;-63
2022/07/07 11:15:21;;;;;;;14.52;2.97;;;17.20;99.90;;;;;;5065495;28;20127;-63
2022/07/07 11:17:55;;;;;;;12.05;2.83;;;17.20;99.90;;;;;;5065064;28;20120;-64
2022/07/07 11:20:23;;;;;;;6.85;1.63;;;17.30;99.90;;;;;;5065848;28;20044;-63
2022/07/07 11:22:54;;;;;;;6.63;1.63;;;17.30;99.90;;;;;;5069228;28;20151;-63
2022/07/07 11:25:22;;;;;;;7.95;1.75;;;17.30;99.90;;;;;;5068846;28;20235;-63
2022/07/07 11:27:49;;;;;;;7.28;1.80;;;17.30;99.90;;;;;;5068745;28;20056;-63
2022/07/07 11:30:16;;;;;;;8.93;1.98;;;17.40;99.90;;;;;;5069702;28;20530;-63
2022/07/07 11:32:43;;;;;;;8.93;2.45;;;17.40;99.90;;;;;;5069318;28;20052;-63
2022/07/07 11:35:11;;;;;;;5.03;1.50;;;17.50;99.90;;;;;;5068334;28;20131;-63
2022/07/07 11:37:39;;;;;;;5.45;1.73;;;17.70;99.90;;;;;;5068863;28;20303;-63
2022/07/07 11:40:12;;;;;;;9.38;1.92;;;17.80;99.90;;;;;;5050076;28;20147;-63
2022/07/07 11:42:38;;;;;;;9.98;1.75;;;17.90;99.90;;;;;;5068598;28;20079;-63
2022/07/07 11:45:05;;;;;;;7.40;2.10;;;17.80;99.90;;;;;;5068687;28;20041;-63
2022/07/07 11:47:35;;;;;;;8.52;2.10;;;17.80;99.90;;;;;;5068330;28;20045;-63
2022/07/07 11:50:00;;;;;;;9.25;2.22;;;17.80;99.90;;;;;;5068153;28;20048;-63
2022/07/07 11:52:26;;;;;;;12.43;2.67;;;17.80;99.90;;;;;;5069784;28;20049;-63
2022/07/07 11:54:52;;;;;;;10.02;2.50;;;17.70;99.90;;;;;;5068657;28;20052;-62
2022/07/07 11:57:31;;;;;;;9.95;2.78;;;17.70;99.90;;;;;;5068398;28;20048;-63
2022/07/07 12:00:22;;;;;;;7.40;2.30;;;17.80;99.90;;;;;;5067662;28;20076;-63
2022/07/07 12:02:53;;;;;;;19.60;3.20;;;17.80;99.90;;;;;;5068118;28;20298;-63
2022/07/07 12:05:26;;;;;;;13.85;2.28;;;17.60;99.90;;;;;;5068299;28;20044;-63
2022/07/07 12:07:59;;;;;;;6.05;1.60;;;17.60;99.90;;;;;;5067622;28;20047;-63
2022/07/07 12:10:31;;;;;;;10.65;2.53;;;17.50;99.90;;;;;;5068053;28;20460;-63
2022/07/07 12:13:05;;;;;;;8.02;2.05;;;17.50;99.90;;;;;;5067832;28;20049;-63
2022/07/07 12:15:38;;;;;;;9.70;2.13;;;17.50;99.90;;;;;;5067706;28;20045;-63
2022/07/07 12:18:05;;;;;;;7.93;2.22;;;17.60;99.90;;;;;;5067590;28;20047;-63
2022/07/07 12:20:32;;;;;;;8.70;2.42;;;17.60;99.90;;;;;;5068121;28;20049;-63
2022/07/07 12:23:00;;;;;;;10.05;2.15;;;17.70;99.90;;;;;;5066941;28;20283;-63
2022/07/07 12:25:27;;;;;;;5.35;1.90;;;17.80;99.90;;;;;;5068039;28;20052;-66
2022/07/07 12:27:58;;;;;;;8.43;1.98;;;17.90;99.90;;;;;;5067735;28;20091;-66
2022/07/07 12:30:36;;;;;;;9.18;2.47;;;18.00;99.90;;;;;;5067588;28;20103;-65
2022/07/07 12:33:04;;;;;;;6.95;1.80;;;18.10;99.90;;;;;;5065302;28;20048;-65
2022/07/07 12:35:33;;;;;;;8.80;2.38;;;18.20;99.90;;;;;;5065670;28;20059;-66
2022/07/07 12:38:02;;;;;;;5.55;1.48;;;18.20;99.90;;;;;;5067085;28;20056;-66
2022/07/07 12:40:29;;;;;;;9.43;2.03;;;18.10;99.90;;;;;;5066201;28;20040;-66
2022/07/07 12:42:56;;;;;;;7.55;2.17;;;18.00;99.90;;;;;;5065412;28;20045;-66
2022/07/07 12:45:22;;;;;;;8.13;2.88;;;17.90;99.90;;;;;;5067349;28;20048;-65
2022/07/07 12:47:53;;;;;;;7.68;1.90;;;17.90;99.90;;;;;;5067493;28;20053;-66